createdAt,value
2018-12-14T00:01:33.259Z,63.57
2018-12-14T00:04:09.063Z,52.40
2018-12-14T00:06:43.403Z,75.50
2018-12-14T00:09:16.272Z,72.37
2018-12-14T00:11:47.099Z,72.93
2018-12-14T00:14:20.247Z,57.78
2018-12-14T00:16:51.936Z,63.63
2018-12-14T00:19:22.736Z,51.33
2018-12-14T00:21:53.465Z,47.27
2018-12-14T00:24:24.305Z,47.47
2018-12-14T00:26:55.288Z,48.87
2018-12-14T00:29:26.704Z,52.60
2018-12-14T00:31:57.839Z,54.60
2018-12-14T00:34:29.054Z,58.47
2018-12-14T00:36:59.813Z,50.07
2018-12-14T00:39:30.967Z,56.97
2018-12-14T00:42:03.437Z,44.57
2018-12-14T00:44:34.234Z,48.43
2018-12-14T00:47:08.127Z,53.00
2018-12-14T00:49:39.399Z,56.67
2018-12-14T00:52:10.203Z,65.57
2018-12-14T00:54:40.995Z,60.80
2018-12-14T00:57:11.906Z,66.77
2018-12-14T00:59:42.689Z,57.70
2018-12-14T01:02:18.560Z,56.00
2018-12-14T01:04:49.343Z,59.53
2018-12-14T01:07:20.043Z,53.83
2018-12-14T01:09:50.751Z,56.73
2018-12-14T01:12:21.403Z,56.03
2018-12-14T01:14:52.076Z,54.97
2018-12-14T01:17:22.715Z,56.43
2018-12-14T01:19:53.433Z,73.87
2018-12-14T01:22:24.145Z,63.47
2018-12-14T01:24:54.872Z,61.80
2018-12-14T01:27:25.534Z,66.67
2018-12-14T01:29:56.251Z,60.73
2018-12-14T01:32:27.022Z,65.50
2018-12-14T01:34:58.008Z,61.77
2018-12-14T01:37:28.727Z,60.40
2018-12-14T01:39:59.473Z,57.20
2018-12-14T01:42:30.139Z,55.03
2018-12-14T01:45:00.900Z,52.67
2018-12-14T01:47:32.803Z,54.47
2018-12-14T01:50:05.150Z,57.43
2018-12-14T01:52:36.039Z,56.10
2018-12-14T01:55:06.835Z,60.10
2018-12-14T01:57:37.767Z,51.70
2018-12-14T02:00:08.782Z,48.30
2018-12-14T02:02:40.374Z,57.90
2018-12-14T02:05:11.078Z,56.63
2018-12-14T02:07:41.809Z,54.20
2018-12-14T02:10:13.187Z,47.87
2018-12-14T02:12:43.894Z,51.20
2018-12-14T02:15:14.546Z,56.60
2018-12-14T02:17:45.230Z,54.60
2018-12-14T02:20:15.877Z,48.50
2018-12-14T02:22:46.619Z,58.70
2018-12-14T02:25:17.313Z,52.50
2018-12-14T02:27:48.834Z,48.43
2018-12-14T02:30:30.795Z,44.47
2018-12-14T02:33:05.421Z,47.20
2018-12-14T02:35:36.120Z,56.23
2018-12-14T02:38:06.766Z,63.23
2018-12-14T02:40:37.626Z,62.27
2018-12-14T02:43:08.359Z,59.00
2018-12-14T02:45:39.083Z,50.50
2018-12-14T02:48:10.235Z,64.57
2018-12-14T02:50:40.923Z,65.93
2018-12-14T02:53:11.579Z,58.33
2018-12-14T02:55:42.257Z,63.27
2018-12-14T02:58:12.906Z,65.67
2018-12-14T03:00:43.554Z,61.77
2018-12-14T03:03:15.625Z,58.90
2018-12-14T03:05:46.290Z,58.63
2018-12-14T03:08:17.906Z,60.47
2018-12-14T03:10:48.579Z,64.60
2018-12-14T03:13:19.899Z,63.67
2018-12-14T03:15:50.946Z,65.83
2018-12-14T03:18:22.607Z,71.07
2018-12-14T03:20:53.426Z,67.80
2018-12-14T03:23:24.125Z,70.53
2018-12-14T03:25:55.044Z,59.23
2018-12-14T03:28:25.680Z,74.43
2018-12-14T03:30:56.412Z,78.10
2018-12-14T03:33:27.068Z,88.30
2018-12-14T03:35:58.851Z,87.07
2018-12-14T03:38:29.571Z,74.20
2018-12-14T03:41:00.767Z,90.80
2018-12-14T03:43:32.976Z,84.60
2018-12-14T03:46:07.272Z,92.50
2018-12-14T03:48:38.039Z,79.17
2018-12-14T03:51:08.677Z,72.20
2018-12-14T03:53:39.360Z,62.70
2018-12-14T03:56:11.161Z,58.00
2018-12-14T03:58:41.971Z,63.10
2018-12-14T04:01:12.611Z,64.13
2018-12-14T04:03:43.381Z,61.50
2018-12-14T04:06:13.997Z,51.83
2018-12-14T04:08:45.747Z,61.47
2018-12-14T04:11:16.427Z,57.57
2018-12-14T04:13:49.054Z,58.47
2018-12-14T04:16:20.019Z,50.50
2018-12-14T04:18:50.692Z,59.97
2018-12-14T04:21:21.370Z,68.17
2018-12-14T04:23:52.067Z,68.93
2018-12-14T04:26:22.790Z,66.07
2018-12-14T04:28:53.410Z,67.20
2018-12-14T04:31:24.079Z,73.17
2018-12-14T04:33:54.690Z,65.53
2018-12-14T04:36:25.427Z,66.63
2018-12-14T04:38:58.210Z,60.80
2018-12-14T04:41:29.202Z,63.00
2018-12-14T04:44:00.505Z,57.50
2018-12-14T04:46:32.534Z,63.83
2018-12-14T04:49:07.160Z,60.07
2018-12-14T04:51:37.768Z,64.40
2018-12-14T04:54:08.484Z,59.23
2018-12-14T04:56:39.185Z,55.63
2018-12-14T04:59:10.148Z,62.47
2018-12-14T05:01:40.902Z,57.53
2018-12-14T05:04:11.710Z,61.00
2018-12-14T05:06:42.414Z,52.13
2018-12-14T05:09:13.122Z,58.17
2018-12-14T05:11:43.923Z,51.03
2018-12-14T05:14:14.815Z,56.47
2018-12-14T05:16:45.473Z,57.40
2018-12-14T05:19:16.155Z,57.23
2018-12-14T05:21:47.038Z,55.57
2018-12-14T05:24:18.197Z,56.77
2018-12-14T05:26:48.855Z,55.63
2018-12-14T05:29:19.584Z,69.93
2018-12-14T05:31:50.832Z,67.93
2018-12-14T05:34:22.555Z,70.73
2018-12-14T05:36:53.281Z,59.03
2018-12-14T05:39:23.945Z,72.53
2018-12-14T05:41:55.543Z,70.17
2018-12-14T05:44:26.226Z,59.43
2018-12-14T05:46:56.887Z,65.53
2018-12-14T05:49:28.138Z,72.30
2018-12-14T05:52:01.033Z,56.17
2018-12-14T05:54:35.849Z,62.40
2018-12-14T05:57:06.512Z,64.30
2018-12-14T05:59:37.250Z,65.80
2018-12-14T06:02:07.943Z,57.63
2018-12-14T06:04:41.579Z,55.10
2018-12-14T06:07:12.365Z,54.60
2018-12-14T06:09:43.071Z,53.43
2018-12-14T06:12:14.192Z,59.13
2018-12-14T06:14:45.199Z,59.40
2018-12-14T06:17:15.832Z,53.00
2018-12-14T06:19:46.513Z,58.17
2018-12-14T06:22:17.199Z,52.80
2018-12-14T06:24:47.952Z,63.73
2018-12-14T06:27:18.655Z,56.23
2018-12-14T06:29:49.364Z,51.70
2018-12-14T06:32:20.007Z,50.10
2018-12-14T06:34:50.710Z,50.83
2018-12-14T06:37:22.244Z,49.10
2018-12-14T06:39:53.140Z,54.87
2018-12-14T06:42:23.918Z,49.27
2018-12-14T06:44:54.719Z,49.13
2018-12-14T06:47:27.667Z,48.63
2018-12-14T06:49:58.415Z,53.73
2018-12-14T06:52:29.146Z,53.60
2018-12-14T06:54:59.904Z,59.20
2018-12-14T06:57:31.231Z,59.93
2018-12-14T07:00:06.924Z,56.23
2018-12-14T07:02:38.007Z,63.73
2018-12-14T07:05:08.842Z,52.00
2018-12-14T07:07:39.579Z,57.80
2018-12-14T07:10:11.307Z,58.33
2018-12-14T07:12:42.097Z,53.90
2018-12-14T07:15:12.774Z,53.20
2018-12-14T07:17:44.834Z,53.50
2018-12-14T07:20:15.570Z,50.90
2018-12-14T07:22:46.351Z,52.20
2018-12-14T07:25:17.916Z,54.40
2018-12-14T07:27:48.615Z,44.40
2018-12-14T07:30:20.145Z,54.07
2018-12-14T07:32:50.873Z,54.97
2018-12-14T07:35:21.977Z,54.23
2018-12-14T07:37:52.724Z,48.57
2018-12-14T07:40:24.109Z,51.70
2018-12-14T07:42:56.683Z,50.23
2018-12-14T07:45:28.570Z,52.27
2018-12-14T07:48:01.874Z,53.13
2018-12-14T07:50:32.883Z,55.40
2018-12-14T07:53:09.125Z,56.83
2018-12-14T07:55:38.326Z,54.33
2018-12-14T07:58:09.018Z,54.00
2018-12-14T08:00:39.829Z,51.90
2018-12-14T08:03:10.467Z,60.27
2018-12-14T08:05:42.351Z,64.97
2018-12-14T08:08:13.443Z,56.87
2018-12-14T08:10:44.180Z,53.30
2018-12-14T08:13:14.943Z,52.17
2018-12-14T08:15:45.649Z,55.10
2018-12-14T08:18:17.600Z,58.27
2018-12-14T08:20:48.343Z,56.10
2018-12-14T08:23:19.167Z,66.07
2018-12-14T08:25:49.901Z,66.40
2018-12-14T08:28:20.629Z,56.03
2018-12-14T08:30:53.209Z,53.00
2018-12-14T08:33:24.191Z,56.58
2018-12-14T08:35:55.567Z,57.40
2018-12-14T08:38:26.248Z,42.07
2018-12-14T08:40:56.930Z,47.00
2018-12-14T08:43:28.021Z,49.93
2018-12-14T08:45:58.737Z,37.53
2018-12-14T08:48:29.538Z,49.37
2018-12-14T08:51:00.232Z,56.50
2018-12-14T08:53:33.136Z,53.23
2018-12-14T08:56:05.604Z,53.33
2018-12-14T08:58:36.272Z,46.10
2018-12-14T09:01:07.006Z,44.80
2018-12-14T09:03:37.672Z,41.53
2018-12-14T09:06:09.495Z,52.37
2018-12-14T09:08:40.176Z,52.97
2018-12-14T09:11:10.843Z,47.30
2018-12-14T09:13:47.680Z,47.87
2018-12-14T09:16:14.210Z,43.63
2018-12-14T09:18:45.095Z,56.65
2018-12-14T09:21:15.799Z,48.77
2018-12-14T09:23:46.557Z,40.88
2018-12-14T09:26:17.428Z,46.33
2018-12-14T09:28:50.234Z,44.60
2018-12-14T09:31:21.578Z,43.90
2018-12-14T09:33:52.405Z,58.77
2018-12-14T09:36:23.252Z,52.88
2018-12-14T09:38:53.896Z,42.00
2018-12-14T09:41:24.766Z,43.90
2018-12-14T09:43:55.455Z,56.13
2018-12-14T09:46:26.395Z,46.10
2018-12-14T09:48:58.358Z,43.40
2018-12-14T09:51:29.017Z,40.37
2018-12-14T09:53:59.711Z,41.30
2018-12-14T09:56:30.660Z,41.83
2018-12-14T09:59:01.380Z,36.45
2018-12-14T10:01:32.578Z,41.70
2018-12-14T10:04:06.695Z,38.83
2018-12-14T10:06:37.780Z,36.13
2018-12-14T10:09:09.026Z,39.55
2018-12-14T10:11:40.250Z,38.38
2018-12-14T10:14:10.991Z,37.85
2018-12-14T10:16:41.668Z,34.33
2018-12-14T10:19:12.516Z,38.08
2018-12-14T10:21:43.666Z,40.33
2018-12-14T10:24:14.425Z,45.90
2018-12-14T10:26:45.130Z,38.13
2018-12-14T10:29:15.858Z,37.40
2018-12-14T10:31:46.562Z,37.17
2018-12-14T10:34:17.275Z,34.30
2018-12-14T10:36:47.999Z,34.58
2018-12-14T10:39:18.731Z,41.28
2018-12-14T10:41:49.630Z,27.13
2018-12-14T10:44:20.370Z,37.83
2018-12-14T10:46:51.302Z,39.42
2018-12-14T10:49:22.361Z,43.38
2018-12-14T10:51:53.399Z,34.98
2018-12-14T10:54:24.337Z,32.23
2018-12-14T10:56:55.360Z,28.62
2018-12-14T10:59:26.599Z,36.95
2018-12-14T11:01:58.970Z,27.35
2018-12-14T11:04:29.887Z,28.83
2018-12-14T11:07:00.824Z,29.40
2018-12-14T11:09:32.806Z,36.40
2018-12-14T11:12:05.339Z,38.65
2018-12-14T11:14:36.015Z,43.50
2018-12-14T11:17:09.231Z,43.45
2018-12-14T11:19:39.858Z,47.17
2018-12-14T11:22:10.567Z,40.60
2018-12-14T11:24:41.215Z,55.00
2018-12-14T11:27:13.334Z,45.40
2018-12-14T11:29:44.012Z,41.53
2018-12-14T11:32:16.010Z,40.45
2018-12-14T11:34:46.730Z,41.95
2018-12-14T11:37:17.470Z,37.23
2018-12-14T11:39:48.325Z,39.53
2018-12-14T11:42:18.963Z,44.85
2018-12-14T11:44:49.662Z,40.43
2018-12-14T11:47:20.885Z,44.00
2018-12-14T11:49:52.444Z,43.10
2018-12-14T11:52:23.175Z,39.70
2018-12-14T11:54:53.860Z,42.70
2018-12-14T11:57:24.546Z,47.35
2018-12-14T11:59:55.422Z,41.10
2018-12-14T12:02:26.148Z,43.65
2018-12-14T12:04:56.814Z,51.08
2018-12-14T12:07:27.586Z,44.35
2018-12-14T12:09:58.244Z,48.78
2018-12-14T12:12:28.974Z,40.48
2018-12-14T12:14:59.720Z,49.50
2018-12-14T12:17:30.406Z,43.68
2018-12-14T12:20:05.354Z,47.93
2018-12-14T12:22:36.019Z,45.63
2018-12-14T12:25:08.343Z,43.48
2018-12-14T12:27:39.011Z,44.05
2018-12-14T12:30:10.794Z,42.45
2018-12-14T12:32:41.513Z,44.40
2018-12-14T12:35:12.239Z,38.92
2018-12-14T12:37:42.907Z,43.65
2018-12-14T12:40:14.387Z,62.30
2018-12-14T12:42:45.141Z,80.83
2018-12-14T12:45:15.899Z,60.50
2018-12-14T12:47:46.615Z,59.65
2018-12-14T12:50:17.340Z,62.43
2018-12-14T12:52:47.976Z,50.48
2018-12-14T12:55:18.682Z,44.18
2018-12-14T12:57:49.320Z,47.15
2018-12-14T13:00:20.051Z,37.93
2018-12-14T13:02:50.727Z,30.30
2018-12-14T13:05:21.485Z,36.90
2018-12-14T13:07:53.262Z,30.50
2018-12-14T13:10:23.942Z,224.42
2018-12-14T13:12:54.650Z,64.67
2018-12-14T13:15:25.451Z,32.50
2018-12-14T13:17:56.343Z,26.85
2018-12-14T13:20:27.048Z,47.27
2018-12-14T13:22:57.906Z,66.02
2018-12-14T13:25:30.356Z,89.58
2018-12-14T13:28:05.227Z,101.33
2018-12-14T13:30:36.475Z,52.00
2018-12-14T13:33:08.139Z,30.57
2018-12-14T13:35:38.902Z,140.47
2018-12-14T13:38:09.895Z,144.95
2018-12-14T13:40:40.567Z,40.85
2018-12-14T13:43:11.279Z,20.00
2018-12-14T13:45:42.046Z,24.25
2018-12-14T13:48:12.692Z,21.35
2018-12-14T13:50:44.788Z,79.27
2018-12-14T13:53:18.403Z,25.30
2018-12-14T13:55:49.083Z,31.02
2018-12-14T13:58:19.782Z,26.33
2018-12-14T14:00:50.614Z,51.53
2018-12-14T14:03:21.377Z,29.27
2018-12-14T14:05:52.011Z,20.82
2018-12-14T14:08:22.749Z,23.18
2018-12-14T14:10:53.364Z,22.07
2018-12-14T14:13:24.052Z,26.87
2018-12-14T14:15:55.935Z,31.77
2018-12-14T14:18:26.894Z,20.68
2018-12-14T14:20:57.598Z,23.90
2018-12-14T14:23:28.506Z,23.95
2018-12-14T14:26:01.054Z,26.02
2018-12-14T14:28:32.716Z,20.40
2018-12-14T14:31:05.227Z,25.72
2018-12-14T14:33:35.843Z,25.12
2018-12-14T14:36:06.626Z,24.12
2018-12-14T14:38:37.329Z,33.10
2018-12-14T14:41:08.284Z,28.38
2018-12-14T14:43:39.565Z,32.70
2018-12-14T14:46:10.281Z,31.02
2018-12-14T14:48:40.987Z,27.85
2018-12-14T14:51:11.924Z,28.45
2018-12-14T14:53:42.600Z,27.35
2018-12-14T14:56:13.320Z,29.50
2018-12-14T14:58:44.049Z,42.30
2018-12-14T15:01:15.170Z,29.10
2018-12-14T15:03:45.885Z,33.02
2018-12-14T15:06:16.540Z,30.40
2018-12-14T15:08:47.204Z,28.98
2018-12-14T15:11:17.917Z,31.60
2018-12-14T15:13:49.680Z,33.88
2018-12-14T15:16:20.517Z,34.18
2018-12-14T15:18:51.229Z,25.00
2018-12-14T15:21:22.630Z,29.70
2018-12-14T15:23:53.399Z,26.10
2018-12-14T15:26:24.118Z,37.93
2018-12-14T15:28:54.795Z,39.08
2018-12-14T15:31:25.729Z,30.50
2018-12-14T15:33:56.446Z,24.67
2018-12-14T15:36:27.290Z,30.82
2018-12-14T15:38:57.900Z,21.25
2018-12-14T15:41:28.579Z,25.32
2018-12-14T15:43:59.296Z,20.57
2018-12-14T15:46:29.995Z,26.05
2018-12-14T15:49:00.841Z,27.00
2018-12-14T15:51:33.609Z,31.07
2018-12-14T15:54:04.990Z,25.17
2018-12-14T15:56:35.661Z,22.67
2018-12-14T15:59:08.162Z,27.60
2018-12-14T16:01:38.976Z,28.38
2018-12-14T16:04:09.731Z,38.00
2018-12-14T16:06:40.423Z,38.80
2018-12-14T16:09:11.106Z,25.52
2018-12-14T16:11:41.789Z,26.40
2018-12-14T16:14:12.683Z,28.02
2018-12-14T16:16:43.468Z,34.45
2018-12-14T16:19:14.243Z,79.07
2018-12-14T16:21:45.495Z,228.10
2018-12-14T16:24:16.211Z,114.65
2018-12-14T16:26:46.974Z,57.03
2018-12-14T16:29:17.662Z,46.68
2018-12-14T16:31:48.315Z,58.92
2018-12-14T16:34:19.108Z,64.50
2018-12-14T16:36:49.758Z,89.52
2018-12-14T16:39:20.416Z,38.42
2018-12-14T16:41:51.079Z,25.20
2018-12-14T16:44:21.741Z,31.48
2018-12-14T16:46:52.410Z,30.52
2018-12-14T16:49:23.109Z,35.03
2018-12-14T16:51:53.850Z,32.75
2018-12-14T16:54:24.562Z,37.10
2018-12-14T16:56:55.811Z,37.67
2018-12-14T16:59:26.514Z,25.20
2018-12-14T17:01:57.270Z,33.55
2018-12-14T17:04:27.908Z,31.20
2018-12-14T17:06:58.636Z,33.18
2018-12-14T17:09:29.413Z,30.72
2018-12-14T17:12:00.247Z,41.77
2018-12-14T17:14:33.089Z,37.80
2018-12-14T17:17:07.209Z,31.80
2018-12-14T17:19:37.870Z,38.40
2018-12-14T17:22:08.603Z,36.95
2018-12-14T17:24:39.292Z,55.45
2018-12-14T17:27:10.137Z,38.38
2018-12-14T17:29:40.814Z,42.25
2018-12-14T17:32:11.504Z,33.10
2018-12-14T17:34:42.218Z,38.53
2018-12-14T17:37:15.587Z,51.23
2018-12-14T17:39:46.988Z,44.93
2018-12-14T17:42:19.852Z,42.73
2018-12-14T17:44:50.602Z,41.85
2018-12-14T17:47:21.286Z,42.90
2018-12-14T17:49:52.403Z,48.38
2018-12-14T17:52:23.047Z,37.70
2018-12-14T17:54:54.233Z,41.85
2018-12-14T17:57:24.865Z,39.08
2018-12-14T17:59:56.021Z,41.73
2018-12-14T18:02:26.707Z,38.53
2018-12-14T18:04:59.635Z,71.12
2018-12-14T18:07:30.339Z,83.27
2018-12-14T18:10:06.451Z,88.45
2018-12-14T18:12:37.183Z,59.27
2018-12-14T18:15:09.318Z,54.23
2018-12-14T18:17:39.948Z,57.50
2018-12-14T18:20:11.234Z,57.78
2018-12-14T18:22:43.109Z,55.92
2018-12-14T18:25:14.575Z,48.45
2018-12-14T18:27:45.404Z,44.50
2018-12-14T18:30:16.126Z,49.77
2018-12-14T18:32:46.831Z,48.15
2018-12-14T18:35:17.481Z,44.25
2018-12-14T18:37:48.327Z,49.65
2018-12-14T18:40:19.183Z,41.35
2018-12-14T18:42:49.974Z,38.48
2018-12-14T18:45:21.109Z,52.55
2018-12-14T18:47:51.837Z,54.33
2018-12-14T18:50:22.558Z,53.28
2018-12-14T18:52:53.307Z,51.13
2018-12-14T18:55:24.015Z,59.88
2018-12-14T18:57:54.762Z,70.52
2018-12-14T19:00:25.923Z,92.67
2018-12-14T19:02:56.686Z,76.22
2018-12-14T19:05:27.355Z,52.35
2018-12-14T19:07:58.049Z,54.30
2018-12-14T19:10:30.188Z,54.18
2018-12-14T19:13:00.959Z,70.10
2018-12-14T19:15:32.156Z,64.00
2018-12-14T19:18:04.343Z,69.45
2018-12-14T19:20:35.120Z,67.65
2018-12-14T19:23:05.827Z,62.80
2018-12-14T19:25:36.528Z,83.37
2018-12-14T19:28:07.584Z,68.52
2018-12-14T19:30:38.316Z,74.77
2018-12-14T19:33:09.294Z,76.10
2018-12-14T19:35:40.144Z,92.08
2018-12-14T19:38:10.857Z,80.90
2018-12-14T19:40:41.772Z,67.87
2018-12-14T19:43:13.753Z,77.12
2018-12-14T19:45:44.427Z,147.20
2018-12-14T19:48:15.627Z,107.50
2018-12-14T19:50:46.376Z,101.30
2018-12-14T19:53:17.132Z,81.50
2018-12-14T19:55:48.134Z,81.02
2018-12-14T19:58:18.915Z,77.87
2018-12-14T20:00:49.631Z,97.45
2018-12-14T20:03:20.372Z,88.82
2018-12-14T20:05:51.007Z,101.27
2018-12-14T20:08:22.046Z,114.45
2018-12-14T20:10:58.922Z,89.58
2018-12-14T20:13:31.018Z,98.17
2018-12-14T20:16:12.598Z,87.30
2018-12-14T20:18:39.242Z,95.30
2018-12-14T20:21:09.916Z,90.57
2018-12-14T20:23:41.585Z,88.27
2018-12-14T20:26:12.249Z,93.95
2018-12-14T20:28:43.015Z,101.92
2018-12-14T20:31:13.749Z,83.37
2018-12-14T20:33:44.608Z,87.75
2018-12-14T20:36:15.380Z,92.67
2018-12-14T20:38:46.167Z,79.20
2018-12-14T20:41:17.737Z,79.65
2018-12-14T20:43:48.679Z,86.42
2018-12-14T20:46:19.606Z,80.77
2018-12-14T20:48:50.320Z,88.45
2018-12-14T20:51:21.319Z,89.65
2018-12-14T20:53:51.975Z,75.52
2018-12-14T20:56:22.756Z,79.42
2018-12-14T20:58:53.558Z,83.80
2018-12-14T21:01:25.096Z,111.03
2018-12-14T21:03:57.756Z,112.83
2018-12-14T21:06:28.693Z,139.05
2018-12-14T21:08:59.386Z,162.62
2018-12-14T21:11:30.058Z,261.98
2018-12-14T21:14:00.818Z,238.07
2018-12-14T21:16:34.722Z,165.07
2018-12-14T21:19:05.435Z,156.12
2018-12-14T21:21:36.549Z,156.63
2018-12-14T21:24:07.293Z,106.30
2018-12-14T21:26:37.936Z,114.50
2018-12-14T21:29:09.033Z,110.20
2018-12-14T21:31:39.774Z,93.17
2018-12-14T21:34:10.664Z,117.35
2018-12-14T21:36:41.419Z,99.37
2018-12-14T21:39:12.325Z,102.92
2018-12-14T21:41:43.486Z,108.42
2018-12-14T21:44:14.199Z,106.50
2018-12-14T21:46:44.964Z,104.15
2018-12-14T21:49:15.925Z,100.82
2018-12-14T21:51:47.263Z,87.55
2018-12-14T21:54:20.003Z,82.65
2018-12-14T21:56:50.671Z,80.17
2018-12-14T21:59:21.393Z,83.35
2018-12-14T22:01:52.096Z,88.90
2018-12-14T22:04:23.683Z,117.35
2018-12-14T22:06:54.553Z,97.92
2018-12-14T22:09:25.229Z,117.25
2018-12-14T22:11:56.091Z,103.92
2018-12-14T22:14:26.834Z,98.82
2018-12-14T22:16:57.658Z,107.97
2018-12-14T22:19:28.467Z,141.22
2018-12-14T22:21:59.147Z,131.30
2018-12-14T22:24:29.871Z,131.20
2018-12-14T22:27:00.540Z,124.70
2018-12-14T22:29:33.955Z,104.70
2018-12-14T22:32:08.314Z,98.27
2018-12-14T22:34:39.007Z,106.20
2018-12-14T22:37:10.912Z,95.77
2018-12-14T22:39:41.932Z,98.75
2018-12-14T22:42:12.669Z,74.03
2018-12-14T22:44:43.339Z,64.55
2018-12-14T22:47:14.084Z,54.03
2018-12-14T22:49:45.765Z,56.50
2018-12-14T22:52:17.547Z,46.90
2018-12-14T22:54:48.395Z,43.00
2018-12-14T22:57:19.057Z,41.15
2018-12-14T22:59:50.351Z,34.00
2018-12-14T23:02:21.063Z,36.35
2018-12-14T23:04:51.712Z,31.75
2018-12-14T23:07:22.434Z,27.90
2018-12-14T23:09:53.227Z,25.80
2018-12-14T23:12:25.409Z,22.95
2018-12-14T23:14:56.132Z,28.65
2018-12-14T23:17:27.416Z,29.07
2018-12-14T23:19:58.671Z,26.90
2018-12-14T23:22:29.802Z,26.12
2018-12-14T23:25:00.510Z,24.70
2018-12-14T23:27:34.446Z,31.97
2018-12-14T23:30:09.870Z,23.55
2018-12-14T23:32:40.526Z,23.07
2018-12-14T23:35:13.098Z,36.93
2018-12-14T23:37:43.807Z,29.15
2018-12-14T23:40:14.493Z,33.15
2018-12-14T23:42:45.604Z,25.57
2018-12-14T23:45:16.309Z,28.98
2018-12-14T23:47:47.582Z,22.45
2018-12-14T23:50:18.884Z,20.65
2018-12-14T23:52:49.623Z,21.62
2018-12-14T23:55:21.891Z,25.90
2018-12-14T23:57:52.575Z,40.23
